createdAt,value
2018-07-22T00:00:16.118Z,2.30
2018-07-22T00:02:44.764Z,1.80
2018-07-22T00:05:13.485Z,2.30
2018-07-22T00:07:42.170Z,2.30
2018-07-22T00:10:20.892Z,2.20
2018-07-22T00:12:49.562Z,2.07
2018-07-22T00:15:18.261Z,2.33
2018-07-22T00:17:46.945Z,2.40
2018-07-22T00:20:15.529Z,1.87
2018-07-22T00:22:44.420Z,1.97
2018-07-22T00:25:13.059Z,1.93
2018-07-22T00:27:41.615Z,2.17
2018-07-22T00:30:10.686Z,2.00
2018-07-22T00:32:41.006Z,2.37
2018-07-22T00:35:10.359Z,1.93
2018-07-22T00:37:39.556Z,2.03
2018-07-22T00:40:09.620Z,2.40
2018-07-22T00:42:38.862Z,1.50
2018-07-22T00:45:10.061Z,1.53
2018-07-22T00:47:38.850Z,2.07
2018-07-22T00:50:07.638Z,1.83
2018-07-22T00:52:36.542Z,1.53
2018-07-22T00:55:05.459Z,1.60
2018-07-22T00:57:34.046Z,1.93
2018-07-22T01:00:03.305Z,1.73
2018-07-22T01:02:31.845Z,1.70
2018-07-22T01:05:00.407Z,1.90
2018-07-22T01:07:29.050Z,1.67
2018-07-22T01:09:57.632Z,1.73
2018-07-22T01:12:26.319Z,1.60
2018-07-22T01:14:55.006Z,1.53
2018-07-22T01:17:23.548Z,1.53
2018-07-22T01:19:52.107Z,1.60
2018-07-22T01:22:21.471Z,1.80
2018-07-22T01:24:50.629Z,1.70
2018-07-22T01:27:19.312Z,1.90
2018-07-22T01:29:47.991Z,1.80
2018-07-22T01:32:16.621Z,1.60
2018-07-22T01:34:45.201Z,1.57
2018-07-22T01:37:13.886Z,1.70
2018-07-22T01:39:42.536Z,1.20
2018-07-22T01:42:11.265Z,1.43
2018-07-22T01:44:39.898Z,1.50
2018-07-22T01:47:08.699Z,1.60
2018-07-22T01:49:37.314Z,1.60
2018-07-22T01:52:05.975Z,1.30
2018-07-22T01:54:34.583Z,1.40
2018-07-22T01:57:03.083Z,1.00
2018-07-22T01:59:31.683Z,1.30
2018-07-22T02:02:00.337Z,1.50
2018-07-22T02:04:28.912Z,1.13
2018-07-22T02:06:57.700Z,1.27
2018-07-22T02:09:26.386Z,1.13
2018-07-22T02:11:55.072Z,1.13
2018-07-22T02:14:23.690Z,1.20
2018-07-22T02:16:52.238Z,1.03
2018-07-22T02:19:20.848Z,1.03
2018-07-22T02:21:49.467Z,0.80
2018-07-22T02:24:18.031Z,1.10
2018-07-22T02:26:46.586Z,0.97
2018-07-22T02:29:15.252Z,1.10
2018-07-22T02:31:43.751Z,1.03
2018-07-22T02:34:12.260Z,0.90
2018-07-22T02:36:40.901Z,0.90
2018-07-22T02:39:11.990Z,1.00
2018-07-22T02:41:40.556Z,1.23
2018-07-22T02:44:09.724Z,0.80
2018-07-22T02:46:38.510Z,1.30
2018-07-22T02:49:07.196Z,1.30
2018-07-22T02:51:35.775Z,0.97
2018-07-22T02:54:04.565Z,0.93
2018-07-22T02:56:33.175Z,1.20
2018-07-22T02:59:04.687Z,1.00
2018-07-22T03:01:35.692Z,1.00
2018-07-22T03:04:04.267Z,1.10
2018-07-22T03:06:33.395Z,1.10
2018-07-22T03:09:01.961Z,1.03
2018-07-22T03:11:30.584Z,0.77
2018-07-22T03:13:59.372Z,0.90
2018-07-22T03:16:27.995Z,0.80
2018-07-22T03:18:56.643Z,1.00
2018-07-22T03:21:25.327Z,1.10
2018-07-22T03:23:53.939Z,1.17
2018-07-22T03:26:22.534Z,1.20
2018-07-22T03:28:51.179Z,1.17
2018-07-22T03:31:19.861Z,1.00
2018-07-22T03:33:48.426Z,1.20
2018-07-22T03:36:17.028Z,1.00
2018-07-22T03:38:45.712Z,1.00
2018-07-22T03:41:14.603Z,1.00
2018-07-22T03:43:43.289Z,1.27
2018-07-22T03:46:12.589Z,1.10
2018-07-22T03:48:41.228Z,1.10
2018-07-22T03:51:09.815Z,1.00
2018-07-22T03:53:38.379Z,1.20
2018-07-22T03:56:07.021Z,0.93
2018-07-22T03:58:35.774Z,1.17
2018-07-22T04:01:04.415Z,1.23
2018-07-22T04:03:33.079Z,1.00
2018-07-22T04:06:01.763Z,1.47
2018-07-22T04:08:30.550Z,1.33
2018-07-22T04:10:59.132Z,1.00
2018-07-22T04:13:27.989Z,1.30
2018-07-22T04:15:56.608Z,1.10
2018-07-22T04:18:25.233Z,1.30
2018-07-22T04:20:53.999Z,1.23
2018-07-22T04:23:22.558Z,1.57
2018-07-22T04:25:51.143Z,1.97
2018-07-22T04:28:19.699Z,1.43
2018-07-22T04:30:48.922Z,1.30
2018-07-22T04:33:17.564Z,1.33
2018-07-22T04:35:46.199Z,1.50
2018-07-22T04:38:14.877Z,0.97
2018-07-22T04:40:43.485Z,1.00
2018-07-22T04:43:12.071Z,1.23
2018-07-22T04:45:40.727Z,1.17
2018-07-22T04:48:09.514Z,1.37
2018-07-22T04:50:38.150Z,1.13
2018-07-22T04:53:06.784Z,1.30
2018-07-22T04:55:35.364Z,1.23
2018-07-22T04:58:03.894Z,1.30
2018-07-22T05:00:32.531Z,1.20
2018-07-22T05:03:01.113Z,1.10
2018-07-22T05:05:30.413Z,1.20
2018-07-22T05:07:58.946Z,1.10
2018-07-22T05:10:27.565Z,0.90
2018-07-22T05:12:56.826Z,1.13
2018-07-22T05:15:25.464Z,2.03
2018-07-22T05:17:54.089Z,1.00
2018-07-22T05:20:22.729Z,1.10
2018-07-22T05:22:51.355Z,0.90
2018-07-22T05:25:20.049Z,1.17
2018-07-22T05:27:48.689Z,1.10
2018-07-22T05:30:18.133Z,1.07
2018-07-22T05:32:46.670Z,1.00
2018-07-22T05:35:15.316Z,1.00
2018-07-22T05:37:43.937Z,1.53
2018-07-22T05:40:12.725Z,1.20
2018-07-22T05:42:41.309Z,0.90
2018-07-22T05:45:09.992Z,1.00
2018-07-22T05:47:38.677Z,1.00
2018-07-22T05:50:07.543Z,0.87
2018-07-22T05:52:36.460Z,0.90
2018-07-22T05:55:05.097Z,0.80
2018-07-22T05:57:33.689Z,0.97
2018-07-22T06:00:02.223Z,1.00
2018-07-22T06:02:30.895Z,0.90
2018-07-22T06:04:59.576Z,0.97
2018-07-22T06:07:28.195Z,1.03
2018-07-22T06:09:56.771Z,0.80
2018-07-22T06:12:25.427Z,1.33
2018-07-22T06:14:54.012Z,1.00
2018-07-22T06:17:22.631Z,0.77
2018-07-22T06:19:51.158Z,1.20
2018-07-22T06:22:19.663Z,1.33
2018-07-22T06:24:48.191Z,0.90
2018-07-22T06:27:16.842Z,1.20
2018-07-22T06:29:45.508Z,1.20
2018-07-22T06:32:14.091Z,0.90
2018-07-22T06:34:42.733Z,1.03
2018-07-22T06:37:11.358Z,0.87
2018-07-22T06:39:39.945Z,0.83
2018-07-22T06:42:08.834Z,1.03
2018-07-22T06:44:37.517Z,1.20
2018-07-22T06:47:06.143Z,1.00
2018-07-22T06:49:34.752Z,0.90
2018-07-22T06:52:03.368Z,0.90
2018-07-22T06:54:32.156Z,1.00
2018-07-22T06:57:00.671Z,1.10
2018-07-22T06:59:29.425Z,0.90
2018-07-22T07:01:58.114Z,1.10
2018-07-22T07:04:26.795Z,1.03
2018-07-22T07:06:55.307Z,1.20
2018-07-22T07:09:23.858Z,0.70
2018-07-22T07:11:52.367Z,1.00
2018-07-22T07:14:21.025Z,1.10
2018-07-22T07:16:49.709Z,1.00
2018-07-22T07:19:18.214Z,1.00
2018-07-22T07:21:46.845Z,0.63
2018-07-22T07:24:15.462Z,0.93
2018-07-22T07:26:44.149Z,1.17
2018-07-22T07:29:12.727Z,0.87
2018-07-22T07:31:41.412Z,0.80
2018-07-22T07:34:09.914Z,0.70
2018-07-22T07:36:38.577Z,0.90
2018-07-22T07:39:09.462Z,1.05
2018-07-22T07:41:38.207Z,0.77
2018-07-22T07:44:07.090Z,1.07
2018-07-22T07:46:35.620Z,1.00
2018-07-22T07:49:04.976Z,0.80
2018-07-22T07:51:33.863Z,0.93
2018-07-22T07:54:02.548Z,0.83
2018-07-22T07:56:31.131Z,0.80
2018-07-22T07:58:59.643Z,1.20
2018-07-22T08:01:28.210Z,0.82
2018-07-22T08:03:56.815Z,0.98
2018-07-22T08:06:25.464Z,0.72
2018-07-22T08:08:54.148Z,1.00
2018-07-22T08:11:23.037Z,1.02
2018-07-22T08:13:51.621Z,1.07
2018-07-22T08:16:20.250Z,1.02
2018-07-22T08:18:48.888Z,1.00
2018-07-22T08:21:17.621Z,0.70
2018-07-22T08:23:46.157Z,0.98
2018-07-22T08:26:14.946Z,0.75
2018-07-22T08:28:55.508Z,0.68
2018-07-22T08:31:24.143Z,0.90
2018-07-22T08:33:53.391Z,0.88
2018-07-22T08:36:21.898Z,0.88
2018-07-22T08:38:50.703Z,1.05
2018-07-22T08:41:19.326Z,0.80
2018-07-22T08:43:47.804Z,0.90
2018-07-22T08:46:16.412Z,0.90
2018-07-22T08:48:44.915Z,0.93
2018-07-22T08:51:13.676Z,1.07
2018-07-22T08:53:42.217Z,1.32
2018-07-22T08:56:10.822Z,1.10
2018-07-22T08:58:39.771Z,1.00
2018-07-22T09:01:08.367Z,0.80
2018-07-22T09:03:37.854Z,0.72
2018-07-22T09:06:06.625Z,0.80
2018-07-22T09:08:35.239Z,0.93
2018-07-22T09:11:03.914Z,0.90
2018-07-22T09:13:32.561Z,1.05
2018-07-22T09:16:01.146Z,1.12
2018-07-22T09:18:29.651Z,1.30
2018-07-22T09:20:58.226Z,1.02
2018-07-22T09:23:26.857Z,1.17
2018-07-22T09:25:56.192Z,1.00
2018-07-22T09:28:24.706Z,1.22
2018-07-22T09:30:53.324Z,1.22
2018-07-22T09:33:21.942Z,1.32
2018-07-22T09:35:50.640Z,1.30
2018-07-22T09:38:19.331Z,1.20
2018-07-22T09:40:47.997Z,1.20
2018-07-22T09:43:16.683Z,1.25
2018-07-22T09:45:45.198Z,1.55
2018-07-22T09:48:13.893Z,1.30
2018-07-22T09:50:42.535Z,0.90
2018-07-22T09:53:11.117Z,1.30
2018-07-22T09:55:40.617Z,1.30
2018-07-22T09:58:09.742Z,1.30
2018-07-22T10:00:43.519Z,1.40
2018-07-22T10:03:12.102Z,1.15
2018-07-22T10:05:40.789Z,1.70
2018-07-22T10:08:09.783Z,1.40
2018-07-22T10:10:38.569Z,1.35
2018-07-22T10:13:07.711Z,1.10
2018-07-22T10:15:36.258Z,1.30
2018-07-22T10:18:04.971Z,1.40
2018-07-22T10:20:33.719Z,1.27
2018-07-22T10:23:02.234Z,1.47
2018-07-22T10:25:30.986Z,1.42
2018-07-22T10:27:59.569Z,1.25
2018-07-22T10:30:28.187Z,1.70
2018-07-22T10:32:57.349Z,1.90
2018-07-22T10:35:25.857Z,1.50
2018-07-22T10:37:54.720Z,1.70
2018-07-22T10:40:23.227Z,1.60
2018-07-22T10:42:51.889Z,1.35
2018-07-22T10:45:20.383Z,1.30
2018-07-22T10:47:49.903Z,1.20
2018-07-22T10:50:18.578Z,1.45
2018-07-22T10:52:47.355Z,1.65
2018-07-22T10:55:15.972Z,1.87
2018-07-22T10:57:44.543Z,1.45
2018-07-22T11:00:13.131Z,1.40
2018-07-22T11:02:41.809Z,1.67
2018-07-22T11:05:10.915Z,1.45
2018-07-22T11:07:39.514Z,1.80
2018-07-22T11:10:08.291Z,1.40
2018-07-22T11:12:36.929Z,1.67
2018-07-22T11:15:06.371Z,1.52
2018-07-22T11:17:34.954Z,1.67
2018-07-22T11:20:03.599Z,1.47
2018-07-22T11:22:32.235Z,1.80
2018-07-22T11:25:00.810Z,1.65
2018-07-22T11:27:29.465Z,1.67
2018-07-22T11:29:58.507Z,1.70
2018-07-22T11:32:27.759Z,1.77
2018-07-22T11:34:56.370Z,2.10
2018-07-22T11:37:25.013Z,1.72
2018-07-22T11:39:53.553Z,1.77
2018-07-22T11:42:23.036Z,1.60
2018-07-22T11:44:51.781Z,1.80
2018-07-22T11:47:20.428Z,1.60
2018-07-22T11:49:49.142Z,1.60
2018-07-22T11:52:17.737Z,1.95
2018-07-22T11:54:46.239Z,2.12
2018-07-22T11:57:14.901Z,1.60
2018-07-22T11:59:43.485Z,1.67
2018-07-22T12:02:12.069Z,1.90
2018-07-22T12:04:40.562Z,1.82
2018-07-22T12:07:09.093Z,1.65
2018-07-22T12:09:37.713Z,1.60
2018-07-22T12:12:06.765Z,1.50
2018-07-22T12:14:35.393Z,1.47
2018-07-22T12:17:03.878Z,1.85
2018-07-22T12:19:32.352Z,1.65
2018-07-22T12:22:00.934Z,1.40
2018-07-22T12:24:29.462Z,1.57
2018-07-22T12:26:58.047Z,2.10
2018-07-22T12:29:26.685Z,2.02
2018-07-22T12:31:55.372Z,1.30
2018-07-22T12:34:24.548Z,1.80
2018-07-22T12:36:53.100Z,1.45
2018-07-22T12:39:21.631Z,1.95
2018-07-22T12:41:50.214Z,1.72
2018-07-22T12:44:18.796Z,1.62
2018-07-22T12:46:47.377Z,1.70
2018-07-22T12:49:16.063Z,1.30
2018-07-22T12:51:44.714Z,1.72
2018-07-22T12:54:13.331Z,1.60
2018-07-22T12:56:41.915Z,1.40
2018-07-22T12:59:10.446Z,1.40
2018-07-22T13:01:39.080Z,1.57
2018-07-22T13:04:07.765Z,1.47
2018-07-22T13:06:36.507Z,1.40
2018-07-22T13:09:07.729Z,1.62
2018-07-22T13:11:36.881Z,1.70
2018-07-22T13:14:05.723Z,1.47
2018-07-22T13:16:34.574Z,1.77
2018-07-22T13:19:03.155Z,1.67
2018-07-22T13:21:32.761Z,1.60
2018-07-22T13:24:01.348Z,1.62
2018-07-22T13:26:30.031Z,1.40
2018-07-22T13:28:58.616Z,1.50
2018-07-22T13:31:27.298Z,1.60
2018-07-22T13:33:55.984Z,1.22
2018-07-22T13:36:24.522Z,1.42
2018-07-22T13:38:53.083Z,1.45
2018-07-22T13:41:21.587Z,1.57
2018-07-22T13:43:50.133Z,1.40
2018-07-22T13:46:18.797Z,1.70
2018-07-22T13:48:47.686Z,1.50
2018-07-22T13:51:16.223Z,1.55
2018-07-22T13:53:44.953Z,1.60
2018-07-22T13:56:13.536Z,1.30
2018-07-22T13:58:42.146Z,1.12
2018-07-22T14:01:10.804Z,1.60
2018-07-22T14:03:39.435Z,1.80
2018-07-22T14:06:08.072Z,1.22
2018-07-22T14:08:36.627Z,1.62
2018-07-22T14:11:05.175Z,1.32
2018-07-22T14:13:33.898Z,1.60
2018-07-22T14:16:02.543Z,1.65
2018-07-22T14:18:31.194Z,1.40
2018-07-22T14:20:59.775Z,1.57
2018-07-22T14:23:28.502Z,1.52
2018-07-22T14:25:57.086Z,1.40
2018-07-22T14:28:25.680Z,1.40
2018-07-22T14:30:55.027Z,1.22
2018-07-22T14:33:23.635Z,1.22
2018-07-22T14:35:52.322Z,1.60
2018-07-22T14:38:20.980Z,1.30
2018-07-22T14:40:49.651Z,1.45
2018-07-22T14:43:20.647Z,1.75
2018-07-22T14:45:49.343Z,1.47
2018-07-22T14:48:17.974Z,1.35
2018-07-22T14:50:46.744Z,1.45
2018-07-22T14:53:15.251Z,1.32
2018-07-22T14:55:44.396Z,1.45
2018-07-22T14:58:13.087Z,1.45
2018-07-22T15:00:42.163Z,1.57
2018-07-22T15:03:10.747Z,1.37
2018-07-22T15:05:39.266Z,1.60
2018-07-22T15:08:08.686Z,1.60
2018-07-22T15:10:37.190Z,1.40
2018-07-22T15:13:05.954Z,1.70
2018-07-22T15:15:34.574Z,1.40
2018-07-22T15:18:03.134Z,1.57
2018-07-22T15:20:31.638Z,1.17
2018-07-22T15:23:00.204Z,1.25
2018-07-22T15:25:28.819Z,1.42
2018-07-22T15:27:57.348Z,1.50
2018-07-22T15:30:25.934Z,1.42
2018-07-22T15:32:54.558Z,1.40
2018-07-22T15:35:23.200Z,1.40
2018-07-22T15:37:51.887Z,1.30
2018-07-22T15:40:20.577Z,1.30
2018-07-22T15:42:49.215Z,1.37
2018-07-22T15:45:17.838Z,1.52
2018-07-22T15:47:46.462Z,1.07
2018-07-22T15:50:15.108Z,1.50
2018-07-22T15:52:43.628Z,1.40
2018-07-22T15:55:12.310Z,1.42
2018-07-22T15:57:40.958Z,1.57
2018-07-22T16:00:10.256Z,1.95
2018-07-22T16:02:39.196Z,1.30
2018-07-22T16:05:08.407Z,1.32
2018-07-22T16:07:37.543Z,1.37
2018-07-22T16:10:06.534Z,1.50
2018-07-22T16:12:35.062Z,1.82
2018-07-22T16:15:03.802Z,1.40
2018-07-22T16:17:32.300Z,1.40
2018-07-22T16:20:00.917Z,1.40
2018-07-22T16:22:29.502Z,1.70
2018-07-22T16:24:58.132Z,1.67
2018-07-22T16:27:26.715Z,1.52
2018-07-22T16:29:55.379Z,1.62
2018-07-22T16:32:24.235Z,1.55
2018-07-22T16:34:52.748Z,1.47
2018-07-22T16:37:21.356Z,1.55
2018-07-22T16:39:49.982Z,1.90
2018-07-22T16:42:18.623Z,1.85
2018-07-22T16:44:48.027Z,1.82
2018-07-22T16:47:16.636Z,1.55
2018-07-22T16:49:45.346Z,1.90
2018-07-22T16:52:13.879Z,1.87
2018-07-22T16:54:42.498Z,1.70
2018-07-22T16:57:11.102Z,2.42
2018-07-22T16:59:39.638Z,2.05
2018-07-22T17:02:08.258Z,1.87
2018-07-22T17:04:36.894Z,1.67
2018-07-22T17:07:05.570Z,4.03
2018-07-22T17:09:34.263Z,2.67
2018-07-22T17:12:02.783Z,2.35
2018-07-22T17:14:31.343Z,2.02
2018-07-22T17:16:59.958Z,1.90
2018-07-22T17:19:28.458Z,2.08
2018-07-22T17:21:57.080Z,2.15
2018-07-22T17:24:25.658Z,1.98
2018-07-22T17:26:54.170Z,1.95
2018-07-22T17:29:22.743Z,2.17
2018-07-22T17:31:51.330Z,1.90
2018-07-22T17:34:20.061Z,2.47
2018-07-22T17:36:48.878Z,2.40
2018-07-22T17:39:17.536Z,2.27
2018-07-22T17:41:46.147Z,2.33
2018-07-22T17:44:14.731Z,2.20
2018-07-22T17:46:43.315Z,2.08
2018-07-22T17:49:11.851Z,1.90
2018-07-22T17:51:40.395Z,2.30
2018-07-22T17:54:09.127Z,2.10
2018-07-22T17:56:37.761Z,2.52
2018-07-22T17:59:06.358Z,1.85
2018-07-22T18:01:34.896Z,2.20
2018-07-22T18:04:03.419Z,1.80
2018-07-22T18:06:32.028Z,2.10
2018-07-22T18:09:00.665Z,1.40
2018-07-22T18:11:29.333Z,1.98
2018-07-22T18:13:57.846Z,2.00
2018-07-22T18:16:26.426Z,1.98
2018-07-22T18:18:55.100Z,1.98
2018-07-22T18:21:24.542Z,2.20
2018-07-22T18:23:53.290Z,2.58
2018-07-22T18:26:21.820Z,2.05
2018-07-22T18:28:50.370Z,1.80
2018-07-22T18:31:19.649Z,2.27
2018-07-22T18:33:48.246Z,2.20
2018-07-22T18:36:16.815Z,2.30
2018-07-22T18:38:45.322Z,2.50
2018-07-22T18:41:13.984Z,2.30
2018-07-22T18:43:43.692Z,2.75
2018-07-22T18:46:12.283Z,2.60
2018-07-22T18:48:40.842Z,2.52
2018-07-22T18:51:09.299Z,2.72
2018-07-22T18:53:37.862Z,2.58
2018-07-22T18:56:06.912Z,3.00
2018-07-22T18:58:35.406Z,2.05
2018-07-22T19:01:04.206Z,2.75
2018-07-22T19:03:32.815Z,2.33
2018-07-22T19:06:01.368Z,3.10
2018-07-22T19:08:30.032Z,2.58
2018-07-22T19:10:58.563Z,2.62
2018-07-22T19:13:27.197Z,2.62
2018-07-22T19:15:55.781Z,2.47
2018-07-22T19:18:24.325Z,2.83
2018-07-22T19:20:52.949Z,2.55
2018-07-22T19:23:21.456Z,2.62
2018-07-22T19:25:50.113Z,2.47
2018-07-22T19:28:18.635Z,2.60
2018-07-22T19:30:47.687Z,2.77
2018-07-22T19:33:16.781Z,2.92
2018-07-22T19:35:45.370Z,2.52
2018-07-22T19:38:13.863Z,2.80
2018-07-22T19:40:42.632Z,2.50
2018-07-22T19:43:11.163Z,2.55
2018-07-22T19:45:39.716Z,2.58
2018-07-22T19:48:08.435Z,1.98
2018-07-22T19:50:36.902Z,2.37
2018-07-22T19:53:05.480Z,2.67
2018-07-22T19:55:34.131Z,2.22
2018-07-22T19:58:02.699Z,2.25
2018-07-22T20:00:31.379Z,2.30
2018-07-22T20:03:00.028Z,2.30
2018-07-22T20:05:28.667Z,2.17
2018-07-22T20:07:57.352Z,2.50
2018-07-22T20:10:25.899Z,2.57
2018-07-22T20:12:54.775Z,2.27
2018-07-22T20:15:23.343Z,2.08
2018-07-22T20:17:51.955Z,2.50
2018-07-22T20:20:20.676Z,2.00
2018-07-22T20:22:50.127Z,2.40
2018-07-22T20:25:18.732Z,2.33
2018-07-22T20:27:47.449Z,2.23
2018-07-22T20:30:15.935Z,2.33
2018-07-22T20:32:44.576Z,1.80
2018-07-22T20:35:13.198Z,1.80
2018-07-22T20:37:41.781Z,1.73
2018-07-22T20:40:10.292Z,1.77
2018-07-22T20:42:38.858Z,1.90
2018-07-22T20:45:07.375Z,1.90
2018-07-22T20:47:35.970Z,1.80
2018-07-22T20:50:04.697Z,1.60
2018-07-22T20:52:33.384Z,2.03
2018-07-22T20:55:01.965Z,2.03
2018-07-22T20:57:30.650Z,1.60
2018-07-22T20:59:59.235Z,1.80
2018-07-22T21:02:27.952Z,1.70
2018-07-22T21:04:56.514Z,1.77
2018-07-22T21:07:25.188Z,1.80
2018-07-22T21:09:53.871Z,2.00
2018-07-22T21:12:44.604Z,2.03
2018-07-22T21:15:14.635Z,1.80
2018-07-22T21:17:43.935Z,1.90
2018-07-22T21:20:12.678Z,1.63
2018-07-22T21:22:41.363Z,1.37
2018-07-22T21:25:09.898Z,1.60
2018-07-22T21:27:38.443Z,2.30
2018-07-22T21:30:08.031Z,1.77
2018-07-22T21:32:36.822Z,1.40
2018-07-22T21:35:05.967Z,1.50
2018-07-22T21:37:34.664Z,1.60
2018-07-22T21:40:03.696Z,2.00
2018-07-22T21:42:32.790Z,1.67
2018-07-22T21:45:01.784Z,2.07
2018-07-22T21:47:30.354Z,1.83
2018-07-22T21:49:58.862Z,2.20
2018-07-22T21:52:27.615Z,2.37
2018-07-22T21:54:56.933Z,2.20
2018-07-22T21:57:25.728Z,2.60
2018-07-22T21:59:54.406Z,2.50
2018-07-22T22:02:27.122Z,2.37
2018-07-22T22:04:56.458Z,2.43
2018-07-22T22:07:25.299Z,2.60
2018-07-22T22:09:54.151Z,2.53
2018-07-22T22:12:22.855Z,2.50
2018-07-22T22:14:51.638Z,2.27
2018-07-22T22:17:20.339Z,2.87
2018-07-22T22:19:48.971Z,2.70
2018-07-22T22:22:17.597Z,2.70
2018-07-22T22:24:46.293Z,2.43
2018-07-22T22:27:15.066Z,2.43
2018-07-22T22:29:43.609Z,2.90
2018-07-22T22:32:12.231Z,2.50
2018-07-22T22:34:41.000Z,2.37
2018-07-22T22:37:09.601Z,2.40
2018-07-22T22:39:38.116Z,2.53
2018-07-22T22:42:07.034Z,2.20
2018-07-22T22:44:35.749Z,2.57
2018-07-22T22:47:04.344Z,2.70
2018-07-22T22:49:32.927Z,2.53
2018-07-22T22:52:01.667Z,2.30
2018-07-22T22:54:30.293Z,2.60
2018-07-22T22:56:58.979Z,2.50
2018-07-22T22:59:27.485Z,2.90
2018-07-22T23:01:56.045Z,2.77
2018-07-22T23:04:25.405Z,2.83
2018-07-22T23:06:53.924Z,2.80
2018-07-22T23:09:22.527Z,2.40
2018-07-22T23:11:51.143Z,2.30
2018-07-22T23:14:20.390Z,2.07
2018-07-22T23:16:49.076Z,2.17
2018-07-22T23:19:17.762Z,2.63
2018-07-22T23:21:46.446Z,2.43
2018-07-22T23:24:15.131Z,2.77
2018-07-22T23:26:43.715Z,2.57
2018-07-22T23:29:12.297Z,2.27
2018-07-22T23:31:40.803Z,2.53
2018-07-22T23:34:09.464Z,2.40
2018-07-22T23:36:38.047Z,2.40
2018-07-22T23:39:09.830Z,2.60
2018-07-22T23:41:38.405Z,2.33
2018-07-22T23:44:07.380Z,2.50
2018-07-22T23:46:35.983Z,2.60
2018-07-22T23:49:04.703Z,2.83
2018-07-22T23:51:33.333Z,2.60
2018-07-22T23:54:03.555Z,2.50
2018-07-22T23:56:32.243Z,2.30
2018-07-22T23:59:00.865Z,2.53
